createdAt,value
2018-03-11T00:01:01.766Z,192.87
2018-03-11T00:03:29.220Z,144.30
2018-03-11T00:05:56.697Z,85.97
2018-03-11T00:08:24.149Z,78.40
2018-03-11T00:10:51.605Z,74.57
2018-03-11T00:13:19.165Z,73.47
2018-03-11T00:15:48.341Z,83.10
2018-03-11T00:18:15.785Z,79.40
2018-03-11T00:20:43.258Z,102.20
2018-03-11T00:23:10.719Z,164.67
2018-03-11T00:25:38.170Z,273.70
2018-03-11T00:28:05.633Z,297.97
2018-03-11T00:30:33.090Z,216.70
2018-03-11T00:33:00.538Z,206.67
2018-03-11T00:35:28.005Z,148.80
2018-03-11T00:37:55.452Z,138.70
2018-03-11T00:40:22.930Z,177.93
2018-03-11T00:42:50.382Z,149.23
2018-03-11T00:45:20.382Z,138.07
2018-03-11T00:47:48.133Z,212.60
2018-03-11T00:50:18.065Z,129.50
2018-03-11T00:52:45.537Z,117.20
2018-03-11T00:55:14.142Z,199.63
2018-03-11T00:57:41.596Z,105.80
2018-03-11T01:00:09.057Z,292.53
2018-03-11T01:02:36.526Z,379.43
2018-03-11T01:05:05.845Z,262.33
2018-03-11T01:07:34.064Z,737.43
2018-03-11T01:10:02.073Z,288.60
2018-03-11T01:12:30.291Z,73.63
2018-03-11T01:14:57.744Z,67.93
2018-03-11T01:17:25.210Z,222.27
2018-03-11T01:19:53.414Z,89.93
2018-03-11T01:22:20.858Z,115.03
2018-03-11T01:24:48.314Z,116.00
2018-03-11T01:27:15.774Z,320.00
2018-03-11T01:29:43.239Z,134.93
2018-03-11T01:32:10.700Z,125.63
2018-03-11T01:34:38.655Z,64.50
2018-03-11T01:37:06.891Z,117.83
2018-03-11T01:39:34.545Z,109.73
2018-03-11T01:42:02.466Z,88.10
2018-03-11T01:44:29.920Z,79.20
2018-03-11T01:46:57.374Z,82.97
2018-03-11T01:49:24.881Z,99.60
2018-03-11T01:51:53.085Z,89.10
2018-03-11T01:54:21.126Z,143.93
2018-03-11T01:56:49.958Z,92.67
2018-03-11T01:59:17.416Z,95.77
2018-03-11T02:01:44.873Z,103.43
2018-03-11T02:04:12.328Z,102.87
2018-03-11T02:06:39.786Z,89.90
2018-03-11T02:09:07.257Z,103.13
2018-03-11T02:11:34.717Z,127.73
2018-03-11T02:14:02.165Z,129.57
2018-03-11T02:16:30.006Z,153.07
2018-03-11T02:18:58.683Z,150.17
2018-03-11T02:21:28.613Z,145.10
2018-03-11T02:23:56.079Z,199.10
2018-03-11T02:26:26.114Z,168.43
2018-03-11T02:28:53.571Z,130.20
2018-03-11T02:31:27.541Z,147.90
2018-03-11T02:33:54.998Z,130.97
2018-03-11T02:36:22.460Z,112.90
2018-03-11T02:38:49.910Z,112.87
2018-03-11T02:41:19.323Z,107.30
2018-03-11T02:43:47.486Z,197.73
2018-03-11T02:46:14.943Z,174.87
2018-03-11T02:48:42.402Z,141.47
2018-03-11T02:51:09.853Z,132.50
2018-03-11T02:53:37.313Z,155.60
2018-03-11T02:56:04.773Z,110.20
2018-03-11T02:58:32.245Z,107.33
2018-03-11T03:00:59.694Z,99.33
2018-03-11T03:03:27.602Z,186.23
2018-03-11T03:05:56.099Z,132.50
2018-03-11T03:08:24.616Z,111.40
2018-03-11T03:10:52.079Z,109.47
2018-03-11T03:13:20.132Z,168.87
2018-03-11T03:15:48.905Z,107.23
2018-03-11T03:18:17.091Z,90.07
2018-03-11T03:20:44.956Z,116.97
2018-03-11T03:23:12.416Z,91.93
2018-03-11T03:25:39.875Z,65.93
2018-03-11T03:28:07.322Z,55.13
2018-03-11T03:30:34.801Z,60.77
2018-03-11T03:33:02.250Z,62.43
2018-03-11T03:35:29.708Z,61.80
2018-03-11T03:37:57.593Z,68.23
2018-03-11T03:40:25.050Z,93.87
2018-03-11T03:42:52.504Z,88.20
2018-03-11T03:45:19.953Z,93.33
2018-03-11T03:47:48.061Z,95.77
2018-03-11T03:50:15.513Z,110.17
2018-03-11T03:52:42.977Z,121.23
2018-03-11T03:55:10.878Z,147.53
2018-03-11T03:57:38.915Z,128.33
2018-03-11T04:00:06.369Z,149.17
2018-03-11T04:02:34.086Z,159.63
2018-03-11T04:05:01.537Z,132.87
2018-03-11T04:07:29.003Z,120.33
2018-03-11T04:09:56.456Z,143.83
2018-03-11T04:12:23.917Z,99.27
2018-03-11T04:14:51.532Z,109.73
2018-03-11T04:17:19.766Z,120.73
2018-03-11T04:19:47.767Z,111.27
2018-03-11T04:22:15.229Z,88.20
2018-03-11T04:24:44.158Z,71.37
2018-03-11T04:27:13.073Z,82.83
2018-03-11T04:29:40.601Z,79.87
2018-03-11T04:32:08.610Z,66.40
2018-03-11T04:34:36.061Z,81.13
2018-03-11T04:37:10.455Z,60.03
2018-03-11T04:39:37.910Z,61.80
2018-03-11T04:42:06.080Z,65.97
2018-03-11T04:44:33.536Z,68.20
2018-03-11T04:47:00.985Z,62.43
2018-03-11T04:49:28.454Z,57.03
2018-03-11T04:51:55.902Z,54.13
2018-03-11T04:54:23.347Z,83.73
2018-03-11T04:56:50.813Z,59.90
2018-03-11T04:59:18.988Z,75.70
2018-03-11T05:01:46.501Z,57.53
2018-03-11T05:04:13.953Z,63.33
2018-03-11T05:06:41.972Z,59.20
2018-03-11T05:09:09.422Z,62.07
2018-03-11T05:11:36.870Z,72.30
2018-03-11T05:14:04.554Z,70.60
2018-03-11T05:16:32.019Z,68.67
2018-03-11T05:18:59.470Z,64.87
2018-03-11T05:21:26.925Z,64.87
2018-03-11T05:23:54.383Z,93.53
2018-03-11T05:26:21.843Z,100.77
2018-03-11T05:28:49.297Z,57.27
2018-03-11T05:31:16.769Z,46.70
2018-03-11T05:33:44.213Z,50.30
2018-03-11T05:36:11.669Z,49.77
2018-03-11T05:38:39.141Z,41.27
2018-03-11T05:41:06.593Z,41.40
2018-03-11T05:43:35.617Z,43.07
2018-03-11T05:46:03.862Z,44.37
2018-03-11T05:48:31.331Z,45.60
2018-03-11T05:50:59.399Z,65.70
2018-03-11T05:53:26.911Z,59.80
2018-03-11T05:55:54.322Z,49.00
2018-03-11T05:58:21.794Z,43.37
2018-03-11T06:00:49.251Z,43.00
2018-03-11T06:03:17.153Z,53.33
2018-03-11T06:05:44.613Z,81.77
2018-03-11T06:08:12.578Z,58.43
2018-03-11T06:10:40.031Z,63.97
2018-03-11T06:13:08.040Z,70.90
2018-03-11T06:15:35.843Z,69.67
2018-03-11T06:18:03.289Z,69.67
2018-03-11T06:20:30.762Z,91.87
2018-03-11T06:22:59.064Z,89.60
2018-03-11T06:25:26.934Z,84.80
2018-03-11T06:27:54.392Z,96.47
2018-03-11T06:30:21.857Z,103.30
2018-03-11T06:32:49.378Z,91.87
2018-03-11T06:35:17.587Z,93.37
2018-03-11T06:37:45.098Z,74.73
2018-03-11T06:40:12.578Z,90.63
2018-03-11T06:42:41.201Z,90.57
2018-03-11T06:45:09.194Z,86.40
2018-03-11T06:47:36.664Z,81.07
2018-03-11T06:50:04.902Z,50.73
2018-03-11T06:52:33.922Z,52.27
2018-03-11T06:55:02.354Z,41.73
2018-03-11T06:57:29.865Z,46.07
2018-03-11T06:59:57.323Z,48.07
2018-03-11T07:02:24.782Z,46.57
2018-03-11T07:04:52.318Z,47.97
2018-03-11T07:07:19.781Z,46.83
2018-03-11T07:09:47.241Z,42.47
2018-03-11T07:12:14.727Z,32.00
2018-03-11T07:14:43.189Z,28.43
2018-03-11T07:17:10.651Z,22.10
2018-03-11T07:19:38.104Z,24.17
2018-03-11T07:22:05.584Z,21.33
2018-03-11T07:24:34.066Z,17.17
2018-03-11T07:27:04.134Z,21.03
2018-03-11T07:29:31.590Z,16.77
2018-03-11T07:31:59.058Z,16.13
2018-03-11T07:34:27.178Z,17.20
2018-03-11T07:36:54.699Z,18.67
2018-03-11T07:39:22.198Z,16.80
2018-03-11T07:41:49.689Z,18.77
2018-03-11T07:44:17.147Z,19.87
2018-03-11T07:46:44.626Z,18.03
2018-03-11T07:49:12.156Z,21.10
2018-03-11T07:51:39.613Z,24.20
2018-03-11T07:54:07.331Z,41.70
2018-03-11T07:56:35.544Z,45.53
2018-03-11T07:59:03.605Z,29.10
2018-03-11T08:01:31.097Z,33.73
2018-03-11T08:03:58.587Z,21.17
2018-03-11T08:06:26.805Z,29.47
2018-03-11T08:08:55.109Z,27.20
2018-03-11T08:11:22.581Z,28.50
2018-03-11T08:13:50.077Z,31.10
2018-03-11T08:16:17.907Z,26.50
2018-03-11T08:18:46.143Z,19.53
2018-03-11T08:21:13.593Z,17.80
2018-03-11T08:23:41.490Z,16.23
2018-03-11T08:26:08.950Z,14.30
2018-03-11T08:28:36.405Z,18.10
2018-03-11T08:31:03.865Z,13.70
2018-03-11T08:33:31.319Z,15.00
2018-03-11T08:35:59.337Z,13.23
2018-03-11T08:38:26.796Z,14.97
2018-03-11T08:40:54.256Z,17.07
2018-03-11T08:43:21.730Z,17.77
2018-03-11T08:45:49.202Z,19.30
2018-03-11T08:48:16.670Z,21.37
2018-03-11T08:50:44.358Z,18.33
2018-03-11T08:53:12.618Z,22.00
2018-03-11T08:55:40.629Z,18.60
2018-03-11T08:58:08.131Z,18.73
2018-03-11T09:00:35.681Z,21.50
2018-03-11T09:03:03.142Z,19.33
2018-03-11T09:05:30.620Z,17.73
2018-03-11T09:07:58.836Z,14.87
2018-03-11T09:10:26.396Z,17.30
2018-03-11T09:12:53.791Z,17.17
2018-03-11T09:15:21.738Z,16.80
2018-03-11T09:17:49.197Z,15.40
2018-03-11T09:20:16.678Z,15.17
2018-03-11T09:22:44.135Z,16.30
2018-03-11T09:25:11.588Z,14.70
2018-03-11T09:27:39.158Z,14.57
2018-03-11T09:30:06.633Z,14.17
2018-03-11T09:32:34.856Z,13.20
2018-03-11T09:35:02.349Z,14.10
2018-03-11T09:37:29.803Z,13.97
2018-03-11T09:39:57.857Z,12.20
2018-03-11T09:42:25.426Z,13.00
2018-03-11T09:44:52.973Z,14.67
2018-03-11T09:47:20.434Z,15.97
2018-03-11T09:49:48.189Z,13.37
2018-03-11T09:52:15.646Z,16.67
2018-03-11T09:54:43.829Z,15.00
2018-03-11T09:57:11.289Z,14.63
2018-03-11T09:59:39.338Z,16.57
2018-03-11T10:02:07.070Z,16.80
2018-03-11T10:04:34.530Z,16.57
2018-03-11T10:07:02.557Z,18.23
2018-03-11T10:09:32.579Z,16.63
2018-03-11T10:12:00.913Z,18.40
2018-03-11T10:14:28.394Z,15.93
2018-03-11T10:16:56.538Z,17.30
2018-03-11T10:19:23.989Z,18.53
2018-03-11T10:21:51.546Z,16.90
2018-03-11T10:24:18.946Z,18.43
2018-03-11T10:26:47.940Z,16.57
2018-03-11T10:29:15.401Z,15.93
2018-03-11T10:31:42.921Z,17.93
2018-03-11T10:34:10.370Z,15.73
2018-03-11T10:36:40.091Z,17.70
2018-03-11T10:39:07.541Z,20.20
2018-03-11T10:41:34.993Z,17.80
2018-03-11T10:44:02.474Z,17.10
2018-03-11T10:46:29.932Z,19.97
2018-03-11T10:48:57.394Z,19.83
2018-03-11T10:51:24.850Z,20.63
2018-03-11T10:53:52.312Z,19.50
2018-03-11T10:56:20.529Z,18.33
2018-03-11T10:58:48.023Z,15.43
2018-03-11T11:01:15.937Z,15.73
2018-03-11T11:03:50.017Z,13.80
2018-03-11T11:06:17.493Z,15.93
2018-03-11T11:08:46.186Z,14.17
2018-03-11T11:11:13.635Z,11.90
2018-03-11T11:13:41.339Z,13.60
2018-03-11T11:16:08.813Z,12.77
2018-03-11T11:18:36.282Z,12.13
2018-03-11T11:21:03.761Z,13.47
2018-03-11T11:23:31.214Z,12.07
2018-03-11T11:25:59.218Z,14.70
2018-03-11T11:28:27.126Z,14.47
2018-03-11T11:30:55.150Z,14.03
2018-03-11T11:33:22.692Z,12.80
2018-03-11T11:35:50.953Z,16.87
2018-03-11T11:38:18.428Z,12.97
2018-03-11T11:40:47.085Z,15.23
2018-03-11T11:43:14.549Z,13.20
2018-03-11T11:45:42.012Z,13.43
2018-03-11T11:48:10.275Z,11.87
2018-03-11T11:50:37.729Z,12.30
2018-03-11T11:53:05.189Z,11.93
2018-03-11T11:55:32.661Z,13.23
2018-03-11T11:58:00.226Z,11.67
2018-03-11T12:00:28.457Z,11.80
2018-03-11T12:02:56.482Z,11.87
2018-03-11T12:05:24.760Z,11.33
2018-03-11T12:07:52.590Z,12.00
2018-03-11T12:10:20.485Z,11.83
2018-03-11T12:12:49.187Z,11.73
2018-03-11T12:15:17.404Z,12.37
2018-03-11T12:17:45.430Z,11.33
2018-03-11T12:20:12.890Z,11.77
2018-03-11T12:22:40.377Z,11.83
2018-03-11T12:25:07.813Z,12.47
2018-03-11T12:27:35.271Z,14.87
2018-03-11T12:30:03.068Z,13.33
2018-03-11T12:32:30.853Z,13.57
2018-03-11T12:34:58.733Z,13.03
2018-03-11T12:37:27.362Z,14.23
2018-03-11T12:39:57.377Z,12.53
2018-03-11T12:42:25.261Z,15.23
2018-03-11T12:44:52.714Z,12.00
2018-03-11T12:47:20.174Z,12.33
2018-03-11T12:49:48.690Z,11.27
2018-03-11T12:52:16.402Z,13.93
2018-03-11T12:54:43.952Z,11.93
2018-03-11T12:57:11.404Z,12.77
2018-03-11T12:59:40.677Z,12.97
2018-03-11T13:02:09.545Z,14.07
2018-03-11T13:04:37.564Z,14.13
2018-03-11T13:07:05.002Z,13.33
2018-03-11T13:09:32.438Z,13.90
2018-03-11T13:12:00.801Z,15.53
2018-03-11T13:14:28.252Z,14.90
2018-03-11T13:16:56.212Z,14.87
2018-03-11T13:19:23.640Z,14.73
2018-03-11T13:21:51.076Z,12.63
2018-03-11T13:24:18.600Z,12.23
2018-03-11T13:26:46.756Z,11.75
2018-03-11T13:29:14.355Z,13.10
2018-03-11T13:31:42.541Z,11.20
2018-03-11T13:34:21.735Z,13.62
2018-03-11T13:36:49.149Z,10.45
2018-03-11T13:39:31.856Z,8.43
2018-03-11T13:41:59.305Z,8.27
2018-03-11T13:44:26.721Z,9.30
2018-03-11T13:47:05.617Z,8.57
2018-03-11T13:49:33.036Z,8.40
2018-03-11T13:52:14.137Z,8.63
2018-03-11T13:54:42.062Z,8.27
2018-03-11T14:00:17.256Z,6.37
2018-03-11T14:02:45.334Z,5.80
2018-03-11T14:05:12.828Z,6.82
2018-03-11T14:07:40.278Z,5.68
2018-03-11T14:10:10.222Z,4.57
2018-03-11T14:12:38.661Z,5.22
2018-03-11T14:15:06.114Z,4.55
2018-03-11T14:17:34.133Z,3.97
2018-03-11T14:20:02.362Z,2.80
2018-03-11T14:22:30.063Z,2.15
2018-03-11T14:24:58.277Z,2.33
2018-03-11T14:27:26.189Z,3.20
2018-03-11T14:29:53.644Z,3.05
2018-03-11T14:32:21.151Z,2.70
2018-03-11T14:34:49.418Z,2.40
2018-03-11T14:37:17.417Z,2.25
2018-03-11T14:39:44.868Z,5.35
2018-03-11T14:42:14.804Z,6.25
2018-03-11T14:44:42.241Z,5.00
2018-03-11T14:47:09.990Z,3.30
2018-03-11T14:49:37.429Z,5.25
2018-03-11T14:52:06.037Z,5.80
2018-03-11T14:54:33.917Z,4.77
2018-03-11T14:57:01.381Z,5.33
2018-03-11T14:59:28.830Z,5.93
2018-03-11T15:01:56.277Z,6.50
2018-03-11T15:04:30.310Z,7.60
2018-03-11T15:06:58.158Z,7.27
2018-03-11T15:09:26.986Z,7.00
2018-03-11T15:11:54.463Z,7.03
2018-03-11T15:14:22.721Z,7.47
2018-03-11T15:16:50.156Z,7.87
2018-03-11T15:19:18.225Z,7.77
2018-03-11T15:21:45.669Z,7.80
2018-03-11T15:24:13.133Z,8.10
2018-03-11T15:26:40.576Z,8.30
2018-03-11T15:29:08.041Z,9.67
2018-03-11T15:31:35.999Z,6.97
2018-03-11T15:34:03.438Z,7.83
2018-03-11T15:36:32.229Z,8.43
2018-03-11T15:38:59.709Z,30.60
2018-03-11T15:41:28.278Z,62.20
2018-03-11T15:43:58.050Z,72.20
2018-03-11T15:46:26.266Z,86.63
2018-03-11T15:48:56.197Z,61.87
2018-03-11T15:51:23.679Z,21.93
2018-03-11T15:53:51.135Z,10.50
2018-03-11T15:56:18.625Z,9.13
2018-03-11T15:58:46.491Z,9.03
2018-03-11T16:01:13.938Z,8.50
2018-03-11T16:03:42.570Z,7.77
2018-03-11T16:06:10.790Z,8.07
2018-03-11T16:08:39.034Z,9.47
2018-03-11T16:11:06.556Z,8.40
2018-03-11T16:13:34.012Z,9.23
2018-03-11T16:16:01.561Z,11.37
2018-03-11T16:18:29.070Z,9.20
2018-03-11T16:20:56.531Z,14.43
2018-03-11T16:23:25.113Z,26.33
2018-03-11T16:25:53.242Z,15.43
2018-03-11T16:28:23.281Z,11.37
2018-03-11T16:30:50.753Z,12.77
2018-03-11T16:33:18.215Z,20.93
2018-03-11T16:35:47.098Z,45.07
2018-03-11T16:38:14.569Z,57.10
2018-03-11T16:40:42.217Z,59.47
2018-03-11T16:43:09.699Z,55.70
2018-03-11T16:45:37.937Z,55.43
2018-03-11T16:48:05.460Z,52.57
2018-03-11T16:50:32.914Z,31.10
2018-03-11T16:53:00.365Z,25.77
2018-03-11T16:55:30.640Z,20.27
2018-03-11T16:57:58.201Z,14.73
2018-03-11T17:00:25.661Z,16.73
2018-03-11T17:02:53.560Z,17.93
2018-03-11T17:05:22.059Z,17.33
2018-03-11T17:07:49.505Z,18.87
2018-03-11T17:10:17.026Z,17.97
2018-03-11T17:12:45.033Z,20.27
2018-03-11T17:15:13.229Z,20.77
2018-03-11T17:17:43.152Z,22.50
2018-03-11T17:20:11.001Z,20.83
2018-03-11T17:22:38.455Z,21.60
2018-03-11T17:25:05.949Z,22.47
2018-03-11T17:27:37.649Z,22.57
2018-03-11T17:30:05.861Z,20.97
2018-03-11T17:32:33.364Z,19.87
2018-03-11T17:35:00.825Z,19.23
2018-03-11T17:37:29.037Z,23.43
2018-03-11T17:39:56.502Z,22.70
2018-03-11T17:42:23.963Z,20.57
2018-03-11T17:44:51.448Z,21.53
2018-03-11T17:47:18.910Z,20.23
2018-03-11T17:49:46.797Z,18.37
2018-03-11T17:52:15.885Z,17.90
2018-03-11T17:54:44.237Z,17.90
2018-03-11T17:57:11.697Z,17.23
2018-03-11T17:59:39.157Z,21.00
2018-03-11T18:02:06.781Z,19.53
2018-03-11T18:04:34.957Z,18.33
2018-03-11T18:07:02.423Z,18.03
2018-03-11T18:09:30.249Z,18.27
2018-03-11T18:11:58.524Z,16.90
2018-03-11T18:14:26.935Z,16.07
2018-03-11T18:16:57.877Z,17.57
2018-03-11T18:19:25.978Z,18.47
2018-03-11T18:21:53.803Z,19.03
2018-03-11T18:24:21.289Z,15.90
2018-03-11T18:26:48.818Z,13.73
2018-03-11T18:29:16.759Z,15.57
2018-03-11T18:31:44.969Z,13.43
2018-03-11T18:34:12.828Z,14.20
2018-03-11T18:36:40.970Z,13.30
2018-03-11T18:39:10.018Z,13.27
2018-03-11T18:41:37.587Z,12.10
2018-03-11T18:44:05.072Z,11.83
2018-03-11T18:46:34.649Z,13.67
2018-03-11T18:49:02.129Z,13.60
2018-03-11T18:51:29.700Z,12.80
2018-03-11T18:53:57.914Z,13.23
2018-03-11T18:56:25.382Z,12.47
2018-03-11T18:58:54.151Z,11.80
2018-03-11T19:01:21.600Z,13.17
2018-03-11T19:03:49.046Z,12.47
2018-03-11T19:06:16.499Z,15.93
2018-03-11T19:08:44.721Z,12.57
2018-03-11T19:11:12.173Z,12.53
2018-03-11T19:13:39.747Z,12.70
2018-03-11T19:16:07.905Z,13.57
2018-03-11T19:18:35.778Z,15.80
2018-03-11T19:21:03.262Z,10.90
2018-03-11T19:23:30.774Z,14.00
2018-03-11T19:25:58.229Z,13.23
2018-03-11T19:28:25.687Z,11.93
2018-03-11T19:30:53.135Z,11.60
2018-03-11T19:33:20.593Z,11.03
2018-03-11T19:35:48.652Z,13.90
2018-03-11T19:38:16.109Z,13.47
2018-03-11T19:40:43.553Z,13.87
2018-03-11T19:43:11.009Z,13.00
2018-03-11T19:45:39.249Z,13.23
2018-03-11T19:48:06.701Z,14.47
2018-03-11T19:50:34.755Z,13.00
2018-03-11T19:53:02.211Z,11.40
2018-03-11T19:55:30.560Z,11.93
2018-03-11T19:57:58.031Z,11.57
2018-03-11T20:00:25.766Z,12.80
2018-03-11T20:02:54.208Z,11.97
2018-03-11T20:05:21.657Z,12.53
2018-03-11T20:07:49.747Z,13.10
2018-03-11T20:10:17.206Z,14.00
2018-03-11T20:12:44.762Z,15.07
2018-03-11T20:15:12.225Z,14.83
2018-03-11T20:17:39.684Z,12.50
2018-03-11T20:20:07.761Z,13.93
2018-03-11T20:22:35.173Z,14.93
2018-03-11T20:25:02.649Z,19.50
2018-03-11T20:27:30.113Z,17.93
2018-03-11T20:29:58.348Z,27.10
2018-03-11T20:32:25.898Z,22.63
2018-03-11T20:34:53.344Z,18.57
2018-03-11T20:37:20.800Z,21.77
2018-03-11T20:39:48.253Z,21.10
2018-03-11T20:42:15.796Z,25.33
2018-03-11T20:44:43.942Z,18.73
2018-03-11T20:47:11.827Z,19.33
2018-03-11T20:49:39.277Z,24.57
2018-03-11T20:52:07.285Z,21.17
2018-03-11T20:54:34.792Z,16.03
2018-03-11T20:57:02.239Z,17.93
2018-03-11T20:59:29.689Z,24.03
2018-03-11T21:01:57.805Z,26.83
2018-03-11T21:04:26.574Z,23.17
2018-03-11T21:06:54.121Z,25.37
2018-03-11T21:09:21.573Z,24.77
2018-03-11T21:11:49.030Z,22.63
2018-03-11T21:14:16.490Z,21.57
2018-03-11T21:16:44.634Z,20.80
2018-03-11T21:19:12.091Z,20.90
2018-03-11T21:21:40.357Z,22.43
2018-03-11T21:24:07.857Z,28.27
2018-03-11T21:26:35.325Z,23.37
2018-03-11T21:29:02.861Z,21.37
2018-03-11T21:31:32.950Z,26.43
2018-03-11T21:34:00.417Z,22.27
2018-03-11T21:36:27.869Z,23.77
2018-03-11T21:38:55.879Z,23.50
2018-03-11T21:41:23.629Z,23.57
2018-03-11T21:43:51.088Z,28.60
2018-03-11T21:46:18.651Z,25.23
2018-03-11T21:48:46.224Z,30.87
2018-03-11T21:51:14.453Z,33.17
2018-03-11T21:53:41.932Z,29.90
2018-03-11T21:56:09.399Z,32.23
2018-03-11T21:58:36.856Z,36.13
2018-03-11T22:01:04.302Z,30.70
2018-03-11T22:03:32.188Z,30.93
2018-03-11T22:05:59.635Z,32.03
2018-03-11T22:08:27.084Z,32.37
2018-03-11T22:10:54.538Z,36.20
2018-03-11T22:13:22.003Z,36.90
2018-03-11T22:15:49.459Z,32.67
2018-03-11T22:18:16.930Z,32.67
2018-03-11T22:20:44.853Z,26.57
2018-03-11T22:23:14.198Z,34.43
2018-03-11T22:25:41.645Z,52.33
2018-03-11T22:28:09.094Z,44.50
2018-03-11T22:30:36.654Z,46.30
2018-03-11T22:33:04.116Z,47.90
2018-03-11T22:35:31.569Z,38.93
2018-03-11T22:38:00.830Z,37.10
2018-03-11T22:40:28.733Z,30.50
2018-03-11T22:42:56.202Z,26.97
2018-03-11T22:45:23.746Z,23.73
2018-03-11T22:47:51.205Z,25.10
2018-03-11T22:50:19.441Z,25.60
2018-03-11T22:52:47.309Z,24.13
2018-03-11T22:55:15.358Z,23.63
2018-03-11T22:57:42.809Z,24.60
2018-03-11T23:00:12.770Z,26.63
2018-03-11T23:02:40.225Z,24.37
2018-03-11T23:05:08.241Z,26.27
2018-03-11T23:07:36.485Z,39.53
2018-03-11T23:10:04.805Z,30.77
2018-03-11T23:12:32.449Z,30.23
2018-03-11T23:15:01.230Z,31.47
2018-03-11T23:17:28.777Z,37.87
2018-03-11T23:19:56.228Z,33.10
2018-03-11T23:22:24.711Z,33.40
2018-03-11T23:24:52.165Z,33.23
2018-03-11T23:27:19.622Z,29.33
2018-03-11T23:29:47.084Z,28.53
2018-03-11T23:32:15.026Z,29.77
2018-03-11T23:34:42.486Z,32.10
2018-03-11T23:37:10.356Z,33.20
2018-03-11T23:39:37.842Z,40.03
2018-03-11T23:42:05.516Z,32.13
2018-03-11T23:44:33.477Z,36.50
2018-03-11T23:47:01.806Z,30.47
2018-03-11T23:49:29.261Z,33.67
2018-03-11T23:51:56.801Z,34.57
2018-03-11T23:54:25.086Z,33.03
2018-03-11T23:56:52.646Z,44.10
2018-03-11T23:59:20.546Z,38.07
